sensor_id;sensor_type;location;lat;lon;timestamp;P1;durP1;ratioP1;P2;durP2;ratioP2
63807;SDS011;49961;43.970;22.868;2023-02-15T00:00:43;20.73;;;16.20;;
63807;SDS011;49961;43.970;22.868;2023-02-15T00:01:44;21.50;;;18.07;;
63807;SDS011;49961;43.970;22.868;2023-02-15T00:02:45;20.85;;;17.77;;
63807;SDS011;49961;43.970;22.868;2023-02-15T00:03:47;19.70;;;16.57;;
63807;SDS011;49961;43.970;22.868;2023-02-15T00:04:48;22.80;;;17.98;;
63807;SDS011;49961;43.970;22.868;2023-02-15T00:05:50;21.15;;;16.45;;
63807;SDS011;49961;43.970;22.868;2023-02-15T00:06:50;20.43;;;16.33;;
63807;SDS011;49961;43.970;22.868;2023-02-15T00:07:51;20.80;;;16.87;;
63807;SDS011;49961;43.970;22.868;2023-02-15T00:08:51;21.67;;;17.97;;
63807;SDS011;49961;43.970;22.868;2023-02-15T00:09:53;20.40;;;16.58;;
63807;SDS011;49961;43.970;22.868;2023-02-15T00:10:53;23.97;;;17.17;;
63807;SDS011;49961;43.970;22.868;2023-02-15T00:12:13;21.88;;;17.02;;
63807;SDS011;49961;43.970;22.868;2023-02-15T00:13:14;20.40;;;16.30;;
63807;SDS011;49961;43.970;22.868;2023-02-15T00:14:16;22.47;;;17.03;;
63807;SDS011;49961;43.970;22.868;2023-02-15T00:15:21;22.52;;;16.70;;
63807;SDS011;49961;43.970;22.868;2023-02-15T00:16:21;21.37;;;16.83;;
63807;SDS011;49961;43.970;22.868;2023-02-15T00:17:21;21.10;;;17.33;;
63807;SDS011;49961;43.970;22.868;2023-02-15T00:18:22;19.90;;;16.90;;
63807;SDS011;49961;43.970;22.868;2023-02-15T00:19:22;21.47;;;16.97;;
63807;SDS011;49961;43.970;22.868;2023-02-15T00:20:23;21.43;;;17.67;;
63807;SDS011;49961;43.970;22.868;2023-02-15T00:21:23;19.80;;;16.17;;
63807;SDS011;49961;43.970;22.868;2023-02-15T00:22:23;20.07;;;16.43;;
63807;SDS011;49961;43.970;22.868;2023-02-15T00:23:26;22.20;;;17.77;;
63807;SDS011;49961;43.970;22.868;2023-02-15T00:24:26;22.17;;;17.08;;
63807;SDS011;49961;43.970;22.868;2023-02-15T00:25:27;21.37;;;16.73;;
63807;SDS011;49961;43.970;22.868;2023-02-15T00:26:27;20.33;;;16.93;;
63807;SDS011;49961;43.970;22.868;2023-02-15T00:27:28;20.93;;;16.80;;
63807;SDS011;49961;43.970;22.868;2023-02-15T00:28:29;22.20;;;17.30;;
63807;SDS011;49961;43.970;22.868;2023-02-15T00:29:30;19.80;;;16.45;;
63807;SDS011;49961;43.970;22.868;2023-02-15T00:30:30;20.00;;;16.57;;
63807;SDS011;49961;43.970;22.868;2023-02-15T00:31:32;21.70;;;17.30;;
63807;SDS011;49961;43.970;22.868;2023-02-15T00:32:33;19.38;;;16.27;;
63807;SDS011;49961;43.970;22.868;2023-02-15T00:33:33;20.53;;;16.63;;
63807;SDS011;49961;43.970;22.868;2023-02-15T00:34:34;20.20;;;15.47;;
63807;SDS011;49961;43.970;22.868;2023-02-15T00:35:34;19.97;;;16.33;;
63807;SDS011;49961;43.970;22.868;2023-02-15T00:36:34;18.67;;;15.60;;
63807;SDS011;49961;43.970;22.868;2023-02-15T00:37:35;20.70;;;16.33;;
63807;SDS011;49961;43.970;22.868;2023-02-15T00:38:35;20.37;;;16.77;;
63807;SDS011;49961;43.970;22.868;2023-02-15T00:39:36;20.25;;;16.23;;
63807;SDS011;49961;43.970;22.868;2023-02-15T00:40:37;21.30;;;16.73;;
63807;SDS011;49961;43.970;22.868;2023-02-15T00:41:37;23.30;;;16.43;;
63807;SDS011;49961;43.970;22.868;2023-02-15T00:42:38;21.63;;;16.80;;
63807;SDS011;49961;43.970;22.868;2023-02-15T00:43:38;20.63;;;16.33;;
63807;SDS011;49961;43.970;22.868;2023-02-15T00:44:39;20.87;;;16.57;;
63807;SDS011;49961;43.970;22.868;2023-02-15T00:45:39;20.33;;;16.13;;
63807;SDS011;49961;43.970;22.868;2023-02-15T00:46:40;18.30;;;15.43;;
63807;SDS011;49961;43.970;22.868;2023-02-15T00:47:40;21.30;;;16.03;;
63807;SDS011;49961;43.970;22.868;2023-02-15T00:48:40;23.20;;;16.53;;
63807;SDS011;49961;43.970;22.868;2023-02-15T00:49:41;20.23;;;16.47;;
63807;SDS011;49961;43.970;22.868;2023-02-15T00:50:41;19.57;;;15.77;;
63807;SDS011;49961;43.970;22.868;2023-02-15T00:51:45;21.60;;;16.13;;
63807;SDS011;49961;43.970;22.868;2023-02-15T00:52:46;20.93;;;16.17;;
63807;SDS011;49961;43.970;22.868;2023-02-15T00:53:46;21.43;;;16.47;;
63807;SDS011;49961;43.970;22.868;2023-02-15T00:54:47;19.53;;;16.27;;
63807;SDS011;49961;43.970;22.868;2023-02-15T00:55:47;21.73;;;16.07;;
63807;SDS011;49961;43.970;22.868;2023-02-15T00:56:48;20.50;;;16.27;;
63807;SDS011;49961;43.970;22.868;2023-02-15T00:57:49;22.30;;;16.60;;
63807;SDS011;49961;43.970;22.868;2023-02-15T00:58:49;20.17;;;16.20;;
63807;SDS011;49961;43.970;22.868;2023-02-15T00:59:49;21.80;;;15.40;;
63807;SDS011;49961;43.970;22.868;2023-02-15T01:00:50;22.77;;;17.07;;
63807;SDS011;49961;43.970;22.868;2023-02-15T01:01:51;19.98;;;16.00;;
63807;SDS011;49961;43.970;22.868;2023-02-15T01:02:52;20.60;;;16.40;;
63807;SDS011;49961;43.970;22.868;2023-02-15T01:03:52;21.40;;;16.10;;
63807;SDS011;49961;43.970;22.868;2023-02-15T01:04:52;20.80;;;16.20;;
63807;SDS011;49961;43.970;22.868;2023-02-15T01:05:53;23.43;;;16.57;;
63807;SDS011;49961;43.970;22.868;2023-02-15T01:06:53;20.23;;;15.67;;
63807;SDS011;49961;43.970;22.868;2023-02-15T01:07:54;20.93;;;15.67;;
63807;SDS011;49961;43.970;22.868;2023-02-15T01:08:54;21.07;;;16.20;;
63807;SDS011;49961;43.970;22.868;2023-02-15T01:09:54;21.43;;;16.43;;
63807;SDS011;49961;43.970;22.868;2023-02-15T01:10:55;24.13;;;16.70;;
63807;SDS011;49961;43.970;22.868;2023-02-15T01:11:56;22.57;;;16.83;;
63807;SDS011;49961;43.970;22.868;2023-02-15T01:12:56;22.87;;;17.03;;
63807;SDS011;49961;43.970;22.868;2023-02-15T01:13:57;20.93;;;15.90;;
63807;SDS011;49961;43.970;22.868;2023-02-15T01:14:58;20.60;;;16.65;;
63807;SDS011;49961;43.970;22.868;2023-02-15T01:15:58;22.07;;;16.60;;
63807;SDS011;49961;43.970;22.868;2023-02-15T01:16:59;21.07;;;16.30;;
63807;SDS011;49961;43.970;22.868;2023-02-15T01:17:59;19.83;;;17.10;;
63807;SDS011;49961;43.970;22.868;2023-02-15T01:19:00;19.90;;;16.17;;
63807;SDS011;49961;43.970;22.868;2023-02-15T01:20:02;20.67;;;16.98;;
63807;SDS011;49961;43.970;22.868;2023-02-15T01:21:10;19.02;;;16.35;;
63807;SDS011;49961;43.970;22.868;2023-02-15T01:22:14;19.10;;;16.42;;
63807;SDS011;49961;43.970;22.868;2023-02-15T01:23:15;20.43;;;16.23;;
63807;SDS011;49961;43.970;22.868;2023-02-15T01:24:15;23.10;;;16.87;;
63807;SDS011;49961;43.970;22.868;2023-02-15T01:25:19;21.93;;;16.63;;
63807;SDS011;49961;43.970;22.868;2023-02-15T01:26:21;21.80;;;16.75;;
63807;SDS011;49961;43.970;22.868;2023-02-15T01:27:21;23.40;;;16.60;;
63807;SDS011;49961;43.970;22.868;2023-02-15T01:28:22;20.80;;;17.07;;
63807;SDS011;49961;43.970;22.868;2023-02-15T01:29:22;22.30;;;16.30;;
63807;SDS011;49961;43.970;22.868;2023-02-15T01:30:23;23.10;;;17.03;;
63807;SDS011;49961;43.970;22.868;2023-02-15T01:31:23;21.63;;;16.47;;
63807;SDS011;49961;43.970;22.868;2023-02-15T01:32:23;22.03;;;17.30;;
63807;SDS011;49961;43.970;22.868;2023-02-15T01:33:24;21.53;;;16.77;;
63807;SDS011;49961;43.970;22.868;2023-02-15T01:34:25;21.07;;;16.93;;
63807;SDS011;49961;43.970;22.868;2023-02-15T01:35:26;20.80;;;16.80;;
63807;SDS011;49961;43.970;22.868;2023-02-15T01:36:27;20.23;;;16.25;;
63807;SDS011;49961;43.970;22.868;2023-02-15T01:37:30;18.02;;;15.85;;
63807;SDS011;49961;43.970;22.868;2023-02-15T01:38:31;20.23;;;16.00;;
63807;SDS011;49961;43.970;22.868;2023-02-15T01:39:32;21.03;;;17.50;;
63807;SDS011;49961;43.970;22.868;2023-02-15T01:40:32;21.00;;;17.00;;
63807;SDS011;49961;43.970;22.868;2023-02-15T01:41:33;20.17;;;16.50;;
63807;SDS011;49961;43.970;22.868;2023-02-15T01:42:33;20.27;;;17.00;;
63807;SDS011;49961;43.970;22.868;2023-02-15T01:43:40;19.50;;;16.07;;
63807;SDS011;49961;43.970;22.868;2023-02-15T01:44:47;21.65;;;17.48;;
63807;SDS011;49961;43.970;22.868;2023-02-15T01:45:48;20.00;;;15.98;;
63807;SDS011;49961;43.970;22.868;2023-02-15T01:46:51;20.85;;;17.02;;
63807;SDS011;49961;43.970;22.868;2023-02-15T01:49:13;21.52;;;16.30;;
63807;SDS011;49961;43.970;22.868;2023-02-15T01:50:28;19.50;;;16.05;;
63807;SDS011;49961;43.970;22.868;2023-02-15T01:51:30;22.95;;;16.45;;
63807;SDS011;49961;43.970;22.868;2023-02-15T01:52:34;18.83;;;15.73;;
63807;SDS011;49961;43.970;22.868;2023-02-15T01:53:44;21.92;;;16.67;;
63807;SDS011;49961;43.970;22.868;2023-02-15T01:54:50;19.45;;;15.98;;
63807;SDS011;49961;43.970;22.868;2023-02-15T01:56:09;21.23;;;15.93;;
63807;SDS011;49961;43.970;22.868;2023-02-15T01:57:16;20.83;;;16.20;;
63807;SDS011;49961;43.970;22.868;2023-02-15T01:58:21;19.63;;;15.13;;
63807;SDS011;49961;43.970;22.868;2023-02-15T01:59:23;19.60;;;15.82;;
63807;SDS011;49961;43.970;22.868;2023-02-15T02:00:24;20.73;;;16.33;;
63807;SDS011;49961;43.970;22.868;2023-02-15T02:01:25;20.53;;;15.30;;
63807;SDS011;49961;43.970;22.868;2023-02-15T02:02:27;20.38;;;15.95;;
63807;SDS011;49961;43.970;22.868;2023-02-15T02:04:50;20.17;;;16.00;;
63807;SDS011;49961;43.970;22.868;2023-02-15T02:05:52;17.45;;;14.65;;
63807;SDS011;49961;43.970;22.868;2023-02-15T02:06:53;20.30;;;15.37;;
63807;SDS011;49961;43.970;22.868;2023-02-15T02:07:56;20.60;;;15.52;;
63807;SDS011;49961;43.970;22.868;2023-02-15T02:08:59;20.70;;;16.13;;
63807;SDS011;49961;43.970;22.868;2023-02-15T02:10:01;19.55;;;16.02;;
63807;SDS011;49961;43.970;22.868;2023-02-15T02:11:02;20.30;;;15.88;;
63807;SDS011;49961;43.970;22.868;2023-02-15T02:12:02;19.97;;;16.50;;
63807;SDS011;49961;43.970;22.868;2023-02-15T02:13:04;20.37;;;15.00;;
63807;SDS011;49961;43.970;22.868;2023-02-15T02:14:06;19.13;;;15.63;;
63807;SDS011;49961;43.970;22.868;2023-02-15T02:15:07;21.33;;;16.17;;
63807;SDS011;49961;43.970;22.868;2023-02-15T02:16:22;18.90;;;16.13;;
63807;SDS011;49961;43.970;22.868;2023-02-15T02:20:59;21.80;;;15.98;;
63807;SDS011;49961;43.970;22.868;2023-02-15T02:22:17;20.58;;;15.75;;
63807;SDS011;49961;43.970;22.868;2023-02-15T02:25:18;19.75;;;15.63;;
63807;SDS011;49961;43.970;22.868;2023-02-15T02:31:21;25.45;;;16.35;;
63807;SDS011;49961;43.970;22.868;2023-02-15T02:37:46;20.38;;;15.88;;
63807;SDS011;49961;43.970;22.868;2023-02-15T02:39:30;20.20;;;14.80;;
63807;SDS011;49961;43.970;22.868;2023-02-15T02:44:48;20.90;;;15.85;;
63807;SDS011;49961;43.970;22.868;2023-02-15T02:45:54;21.33;;;15.35;;
63807;SDS011;49961;43.970;22.868;2023-02-15T02:48:12;20.65;;;16.25;;
63807;SDS011;49961;43.970;22.868;2023-02-15T02:49:27;21.92;;;17.02;;
63807;SDS011;49961;43.970;22.868;2023-02-15T02:50:31;21.10;;;16.48;;
63807;SDS011;49961;43.970;22.868;2023-02-15T02:51:32;20.50;;;16.60;;
63807;SDS011;49961;43.970;22.868;2023-02-15T02:52:36;21.27;;;16.80;;
63807;SDS011;49961;43.970;22.868;2023-02-15T02:53:40;21.30;;;16.35;;
63807;SDS011;49961;43.970;22.868;2023-02-15T02:54:41;19.67;;;16.20;;
63807;SDS011;49961;43.970;22.868;2023-02-15T02:55:54;21.20;;;16.27;;
63807;SDS011;49961;43.970;22.868;2023-02-15T02:56:58;20.10;;;16.17;;
63807;SDS011;49961;43.970;22.868;2023-02-15T02:59:32;20.08;;;15.88;;
63807;SDS011;49961;43.970;22.868;2023-02-15T03:00:40;21.90;;;16.80;;
63807;SDS011;49961;43.970;22.868;2023-02-15T03:02:42;21.07;;;16.50;;
63807;SDS011;49961;43.970;22.868;2023-02-15T03:03:49;20.02;;;16.33;;
63807;SDS011;49961;43.970;22.868;2023-02-15T03:04:56;23.58;;;16.70;;
63807;SDS011;49961;43.970;22.868;2023-02-15T03:06:05;20.92;;;15.95;;
63807;SDS011;49961;43.970;22.868;2023-02-15T03:07:17;21.33;;;16.60;;
63807;SDS011;49961;43.970;22.868;2023-02-15T03:08:23;23.08;;;15.98;;
63807;SDS011;49961;43.970;22.868;2023-02-15T03:09:29;25.33;;;16.40;;
63807;SDS011;49961;43.970;22.868;2023-02-15T03:10:43;24.65;;;15.88;;
63807;SDS011;49961;43.970;22.868;2023-02-15T03:11:44;26.77;;;16.33;;
63807;SDS011;49961;43.970;22.868;2023-02-15T03:12:46;21.60;;;16.42;;
63807;SDS011;49961;43.970;22.868;2023-02-15T03:13:47;23.17;;;16.35;;
63807;SDS011;49961;43.970;22.868;2023-02-15T03:14:52;24.60;;;15.52;;
63807;SDS011;49961;43.970;22.868;2023-02-15T03:16:01;23.75;;;16.33;;
63807;SDS011;49961;43.970;22.868;2023-02-15T03:17:25;21.08;;;15.57;;
63807;SDS011;49961;43.970;22.868;2023-02-15T03:18:35;21.67;;;15.90;;
63807;SDS011;49961;43.970;22.868;2023-02-15T03:19:40;21.77;;;16.20;;
63807;SDS011;49961;43.970;22.868;2023-02-15T03:20:43;21.40;;;15.98;;
63807;SDS011;49961;43.970;22.868;2023-02-15T03:21:49;22.55;;;16.05;;
63807;SDS011;49961;43.970;22.868;2023-02-15T03:23:13;26.23;;;16.52;;
63807;SDS011;49961;43.970;22.868;2023-02-15T03:24:21;21.23;;;15.98;;
63807;SDS011;49961;43.970;22.868;2023-02-15T03:25:33;22.35;;;16.10;;
63807;SDS011;49961;43.970;22.868;2023-02-15T03:26:36;20.38;;;15.25;;
63807;SDS011;49961;43.970;22.868;2023-02-15T03:27:40;20.83;;;15.10;;
63807;SDS011;49961;43.970;22.868;2023-02-15T03:28:45;20.92;;;15.13;;
63807;SDS011;49961;43.970;22.868;2023-02-15T03:29:49;19.13;;;14.93;;
63807;SDS011;49961;43.970;22.868;2023-02-15T03:30:55;20.02;;;15.38;;
63807;SDS011;49961;43.970;22.868;2023-02-15T03:32:00;23.00;;;15.63;;
63807;SDS011;49961;43.970;22.868;2023-02-15T03:33:04;18.85;;;14.80;;
63807;SDS011;49961;43.970;22.868;2023-02-15T03:34:08;19.05;;;15.88;;
63807;SDS011;49961;43.970;22.868;2023-02-15T03:35:11;20.50;;;15.93;;
63807;SDS011;49961;43.970;22.868;2023-02-15T03:36:28;21.63;;;15.83;;
63807;SDS011;49961;43.970;22.868;2023-02-15T03:37:58;22.50;;;15.57;;
63807;SDS011;49961;43.970;22.868;2023-02-15T03:39:10;22.70;;;15.35;;
63807;SDS011;49961;43.970;22.868;2023-02-15T03:40:19;22.60;;;14.95;;
63807;SDS011;49961;43.970;22.868;2023-02-15T03:41:45;18.30;;;14.23;;
63807;SDS011;49961;43.970;22.868;2023-02-15T03:42:55;18.33;;;15.07;;
63807;SDS011;49961;43.970;22.868;2023-02-15T03:44:46;21.25;;;15.15;;
63807;SDS011;49961;43.970;22.868;2023-02-15T03:45:31;19.80;;;15.00;;
63807;SDS011;49961;43.970;22.868;2023-02-15T03:47:52;20.55;;;15.23;;
63807;SDS011;49961;43.970;22.868;2023-02-15T03:48:57;18.45;;;14.63;;
63807;SDS011;49961;43.970;22.868;2023-02-15T03:50:27;19.38;;;15.27;;
63807;SDS011;49961;43.970;22.868;2023-02-15T03:51:49;22.02;;;14.40;;
63807;SDS011;49961;43.970;22.868;2023-02-15T03:52:53;21.63;;;15.50;;
63807;SDS011;49961;43.970;22.868;2023-02-15T03:53:55;22.98;;;16.65;;
63807;SDS011;49961;43.970;22.868;2023-02-15T03:54:57;20.85;;;16.20;;
63807;SDS011;49961;43.970;22.868;2023-02-15T03:55:58;22.25;;;15.75;;
63807;SDS011;49961;43.970;22.868;2023-02-15T03:56:58;21.33;;;15.53;;
63807;SDS011;49961;43.970;22.868;2023-02-15T03:58:19;19.90;;;15.13;;
63807;SDS011;49961;43.970;22.868;2023-02-15T03:59:38;19.58;;;14.77;;
63807;SDS011;49961;43.970;22.868;2023-02-15T04:00:58;20.38;;;15.02;;
63807;SDS011;49961;43.970;22.868;2023-02-15T04:02:20;21.25;;;15.00;;
63807;SDS011;49961;43.970;22.868;2023-02-15T04:04:37;20.45;;;15.05;;
63807;SDS011;49961;43.970;22.868;2023-02-15T04:05:44;20.65;;;14.98;;
63807;SDS011;49961;43.970;22.868;2023-02-15T04:06:44;18.77;;;15.30;;
63807;SDS011;49961;43.970;22.868;2023-02-15T04:07:45;20.07;;;15.97;;
63807;SDS011;49961;43.970;22.868;2023-02-15T04:08:45;20.63;;;16.07;;
63807;SDS011;49961;43.970;22.868;2023-02-15T04:10:04;19.25;;;15.30;;
63807;SDS011;49961;43.970;22.868;2023-02-15T04:11:24;22.00;;;15.43;;
63807;SDS011;49961;43.970;22.868;2023-02-15T04:12:24;21.73;;;15.33;;
63807;SDS011;49961;43.970;22.868;2023-02-15T04:13:31;22.47;;;15.87;;
63807;SDS011;49961;43.970;22.868;2023-02-15T04:14:32;19.50;;;15.05;;
63807;SDS011;49961;43.970;22.868;2023-02-15T04:15:53;20.15;;;15.60;;
63807;SDS011;49961;43.970;22.868;2023-02-15T04:17:05;19.42;;;15.95;;
63807;SDS011;49961;43.970;22.868;2023-02-15T04:18:06;20.40;;;15.60;;
63807;SDS011;49961;43.970;22.868;2023-02-15T04:19:07;20.43;;;15.47;;
63807;SDS011;49961;43.970;22.868;2023-02-15T04:20:25;20.45;;;15.68;;
63807;SDS011;49961;43.970;22.868;2023-02-15T04:21:44;22.13;;;15.75;;
63807;SDS011;49961;43.970;22.868;2023-02-15T04:23:05;21.38;;;15.02;;
63807;SDS011;49961;43.970;22.868;2023-02-15T04:24:24;20.58;;;16.10;;
63807;SDS011;49961;43.970;22.868;2023-02-15T04:25:43;21.73;;;16.00;;
63807;SDS011;49961;43.970;22.868;2023-02-15T04:26:43;20.87;;;15.93;;
63807;SDS011;49961;43.970;22.868;2023-02-15T04:27:45;21.70;;;15.80;;
63807;SDS011;49961;43.970;22.868;2023-02-15T04:28:48;22.23;;;15.80;;
63807;SDS011;49961;43.970;22.868;2023-02-15T04:29:48;21.30;;;15.63;;
63807;SDS011;49961;43.970;22.868;2023-02-15T04:30:49;20.33;;;15.00;;
63807;SDS011;49961;43.970;22.868;2023-02-15T04:31:50;24.37;;;15.97;;
63807;SDS011;49961;43.970;22.868;2023-02-15T04:32:51;19.92;;;15.90;;
63807;SDS011;49961;43.970;22.868;2023-02-15T04:33:53;24.02;;;16.27;;
63807;SDS011;49961;43.970;22.868;2023-02-15T04:34:53;21.97;;;15.97;;
63807;SDS011;49961;43.970;22.868;2023-02-15T04:35:53;19.80;;;15.80;;
63807;SDS011;49961;43.970;22.868;2023-02-15T04:36:54;20.47;;;16.17;;
63807;SDS011;49961;43.970;22.868;2023-02-15T04:37:54;20.70;;;16.23;;
63807;SDS011;49961;43.970;22.868;2023-02-15T04:38:55;18.87;;;15.10;;
63807;SDS011;49961;43.970;22.868;2023-02-15T04:39:56;20.07;;;15.77;;
63807;SDS011;49961;43.970;22.868;2023-02-15T04:40:58;21.38;;;16.23;;
63807;SDS011;49961;43.970;22.868;2023-02-15T04:41:58;20.43;;;16.90;;
63807;SDS011;49961;43.970;22.868;2023-02-15T04:42:59;20.77;;;16.37;;
63807;SDS011;49961;43.970;22.868;2023-02-15T04:43:59;20.93;;;16.40;;
63807;SDS011;49961;43.970;22.868;2023-02-15T04:45:00;20.63;;;16.08;;
63807;SDS011;49961;43.970;22.868;2023-02-15T04:46:01;22.17;;;16.80;;
63807;SDS011;49961;43.970;22.868;2023-02-15T04:47:01;22.07;;;17.23;;
63807;SDS011;49961;43.970;22.868;2023-02-15T04:48:02;24.60;;;16.90;;
63807;SDS011;49961;43.970;22.868;2023-02-15T04:49:02;21.73;;;16.93;;
63807;SDS011;49961;43.970;22.868;2023-02-15T04:50:03;20.50;;;16.80;;
63807;SDS011;49961;43.970;22.868;2023-02-15T04:51:07;21.90;;;16.97;;
63807;SDS011;49961;43.970;22.868;2023-02-15T04:52:09;24.95;;;18.25;;
63807;SDS011;49961;43.970;22.868;2023-02-15T04:53:09;25.93;;;17.90;;
63807;SDS011;49961;43.970;22.868;2023-02-15T04:54:11;25.27;;;17.95;;
63807;SDS011;49961;43.970;22.868;2023-02-15T04:55:11;26.80;;;19.00;;
63807;SDS011;49961;43.970;22.868;2023-02-15T04:56:11;23.77;;;18.17;;
63807;SDS011;49961;43.970;22.868;2023-02-15T04:57:12;28.83;;;18.70;;
63807;SDS011;49961;43.970;22.868;2023-02-15T04:58:13;27.50;;;18.37;;
63807;SDS011;49961;43.970;22.868;2023-02-15T04:59:13;24.60;;;19.20;;
63807;SDS011;49961;43.970;22.868;2023-02-15T05:00:14;25.90;;;19.53;;
63807;SDS011;49961;43.970;22.868;2023-02-15T05:01:14;24.10;;;18.87;;
63807;SDS011;49961;43.970;22.868;2023-02-15T05:02:15;23.87;;;18.83;;
63807;SDS011;49961;43.970;22.868;2023-02-15T05:03:16;22.40;;;18.40;;
63807;SDS011;49961;43.970;22.868;2023-02-15T05:04:16;22.53;;;17.43;;
63807;SDS011;49961;43.970;22.868;2023-02-15T05:05:16;23.17;;;18.10;;
63807;SDS011;49961;43.970;22.868;2023-02-15T05:06:17;22.67;;;17.07;;
63807;SDS011;49961;43.970;22.868;2023-02-15T05:07:17;21.77;;;17.27;;
63807;SDS011;49961;43.970;22.868;2023-02-15T05:08:20;24.40;;;18.17;;
63807;SDS011;49961;43.970;22.868;2023-02-15T05:09:20;22.50;;;17.17;;
63807;SDS011;49961;43.970;22.868;2023-02-15T05:10:21;22.17;;;17.17;;
63807;SDS011;49961;43.970;22.868;2023-02-15T05:11:21;25.03;;;18.03;;
63807;SDS011;49961;43.970;22.868;2023-02-15T05:12:21;25.37;;;18.47;;
63807;SDS011;49961;43.970;22.868;2023-02-15T05:13:22;25.83;;;18.33;;
63807;SDS011;49961;43.970;22.868;2023-02-15T05:14:23;29.50;;;18.67;;
63807;SDS011;49961;43.970;22.868;2023-02-15T05:15:23;25.80;;;18.20;;
63807;SDS011;49961;43.970;22.868;2023-02-15T05:16:23;23.57;;;17.67;;
63807;SDS011;49961;43.970;22.868;2023-02-15T05:17:25;25.40;;;19.58;;
63807;SDS011;49961;43.970;22.868;2023-02-15T05:18:25;25.87;;;18.23;;
63807;SDS011;49961;43.970;22.868;2023-02-15T05:19:26;29.57;;;18.20;;
63807;SDS011;49961;43.970;22.868;2023-02-15T05:20:27;24.73;;;18.40;;
63807;SDS011;49961;43.970;22.868;2023-02-15T05:21:27;25.10;;;18.30;;
63807;SDS011;49961;43.970;22.868;2023-02-15T05:22:28;22.20;;;17.30;;
63807;SDS011;49961;43.970;22.868;2023-02-15T05:23:28;24.93;;;18.23;;
63807;SDS011;49961;43.970;22.868;2023-02-15T05:24:29;24.67;;;18.60;;
63807;SDS011;49961;43.970;22.868;2023-02-15T05:25:48;22.63;;;17.50;;
63807;SDS011;49961;43.970;22.868;2023-02-15T05:27:10;26.30;;;18.25;;
63807;SDS011;49961;43.970;22.868;2023-02-15T05:28:29;26.35;;;18.38;;
63807;SDS011;49961;43.970;22.868;2023-02-15T05:29:30;26.53;;;18.00;;
63807;SDS011;49961;43.970;22.868;2023-02-15T05:30:30;25.50;;;18.60;;
63807;SDS011;49961;43.970;22.868;2023-02-15T05:31:31;22.20;;;18.07;;
63807;SDS011;49961;43.970;22.868;2023-02-15T05:32:32;24.80;;;18.35;;
63807;SDS011;49961;43.970;22.868;2023-02-15T05:33:33;24.03;;;19.07;;
63807;SDS011;49961;43.970;22.868;2023-02-15T05:34:33;25.17;;;18.17;;
63807;SDS011;49961;43.970;22.868;2023-02-15T05:35:34;25.23;;;19.00;;
63807;SDS011;49961;43.970;22.868;2023-02-15T05:36:35;25.20;;;19.53;;
63807;SDS011;49961;43.970;22.868;2023-02-15T05:37:35;24.33;;;19.70;;
63807;SDS011;49961;43.970;22.868;2023-02-15T05:38:36;23.67;;;18.73;;
63807;SDS011;49961;43.970;22.868;2023-02-15T05:39:37;23.52;;;18.90;;
63807;SDS011;49961;43.970;22.868;2023-02-15T05:40:38;26.33;;;19.77;;
63807;SDS011;49961;43.970;22.868;2023-02-15T05:41:38;22.83;;;18.10;;
63807;SDS011;49961;43.970;22.868;2023-02-15T05:42:38;23.43;;;18.87;;
63807;SDS011;49961;43.970;22.868;2023-02-15T05:43:39;23.37;;;19.27;;
63807;SDS011;49961;43.970;22.868;2023-02-15T05:44:40;22.97;;;18.77;;
63807;SDS011;49961;43.970;22.868;2023-02-15T05:45:40;24.90;;;18.97;;
63807;SDS011;49961;43.970;22.868;2023-02-15T05:46:45;26.73;;;19.27;;
63807;SDS011;49961;43.970;22.868;2023-02-15T05:47:45;27.07;;;19.90;;
63807;SDS011;49961;43.970;22.868;2023-02-15T05:48:46;25.67;;;20.07;;
63807;SDS011;49961;43.970;22.868;2023-02-15T05:49:46;31.27;;;20.67;;
63807;SDS011;49961;43.970;22.868;2023-02-15T05:50:55;26.20;;;19.43;;
63807;SDS011;49961;43.970;22.868;2023-02-15T05:52:16;26.35;;;19.20;;
63807;SDS011;49961;43.970;22.868;2023-02-15T05:53:17;31.80;;;22.60;;
63807;SDS011;49961;43.970;22.868;2023-02-15T05:54:17;40.20;;;30.03;;
63807;SDS011;49961;43.970;22.868;2023-02-15T05:55:18;40.50;;;30.20;;
63807;SDS011;49961;43.970;22.868;2023-02-15T05:56:19;50.65;;;38.50;;
63807;SDS011;49961;43.970;22.868;2023-02-15T05:57:19;46.23;;;35.37;;
63807;SDS011;49961;43.970;22.868;2023-02-15T05:58:20;38.80;;;30.03;;
63807;SDS011;49961;43.970;22.868;2023-02-15T05:59:20;39.00;;;28.43;;
63807;SDS011;49961;43.970;22.868;2023-02-15T06:00:20;38.67;;;29.57;;
63807;SDS011;49961;43.970;22.868;2023-02-15T06:01:21;31.70;;;25.20;;
63807;SDS011;49961;43.970;22.868;2023-02-15T06:02:22;30.98;;;25.08;;
63807;SDS011;49961;43.970;22.868;2023-02-15T06:03:23;41.27;;;30.20;;
63807;SDS011;49961;43.970;22.868;2023-02-15T06:04:25;40.22;;;30.27;;
63807;SDS011;49961;43.970;22.868;2023-02-15T06:05:26;40.07;;;28.30;;
63807;SDS011;49961;43.970;22.868;2023-02-15T06:06:26;37.73;;;29.83;;
63807;SDS011;49961;43.970;22.868;2023-02-15T06:07:27;66.27;;;49.73;;
63807;SDS011;49961;43.970;22.868;2023-02-15T06:08:27;52.70;;;40.00;;
63807;SDS011;49961;43.970;22.868;2023-02-15T06:09:28;41.57;;;31.97;;
63807;SDS011;49961;43.970;22.868;2023-02-15T06:10:28;29.80;;;24.80;;
63807;SDS011;49961;43.970;22.868;2023-02-15T06:11:28;30.73;;;23.90;;
63807;SDS011;49961;43.970;22.868;2023-02-15T06:12:29;30.73;;;23.67;;
63807;SDS011;49961;43.970;22.868;2023-02-15T06:13:30;27.47;;;22.10;;
63807;SDS011;49961;43.970;22.868;2023-02-15T06:14:31;26.98;;;22.13;;
63807;SDS011;49961;43.970;22.868;2023-02-15T06:15:31;28.20;;;21.47;;
63807;SDS011;49961;43.970;22.868;2023-02-15T06:16:32;27.88;;;21.40;;
63807;SDS011;49961;43.970;22.868;2023-02-15T06:17:33;26.10;;;22.57;;
63807;SDS011;49961;43.970;22.868;2023-02-15T06:18:33;29.30;;;21.53;;
63807;SDS011;49961;43.970;22.868;2023-02-15T06:19:34;27.97;;;21.40;;
63807;SDS011;49961;43.970;22.868;2023-02-15T06:20:34;28.60;;;21.90;;
63807;SDS011;49961;43.970;22.868;2023-02-15T06:21:35;28.87;;;22.10;;
63807;SDS011;49961;43.970;22.868;2023-02-15T06:22:35;29.83;;;22.13;;
63807;SDS011;49961;43.970;22.868;2023-02-15T06:23:35;28.83;;;22.43;;
63807;SDS011;49961;43.970;22.868;2023-02-15T06:24:36;26.87;;;21.63;;
63807;SDS011;49961;43.970;22.868;2023-02-15T06:25:36;27.63;;;22.33;;
63807;SDS011;49961;43.970;22.868;2023-02-15T06:26:37;27.57;;;22.43;;
63807;SDS011;49961;43.970;22.868;2023-02-15T06:27:37;25.17;;;21.27;;
63807;SDS011;49961;43.970;22.868;2023-02-15T06:28:40;32.03;;;22.75;;
63807;SDS011;49961;43.970;22.868;2023-02-15T06:29:41;28.97;;;21.67;;
63807;SDS011;49961;43.970;22.868;2023-02-15T06:30:41;30.63;;;22.07;;
63807;SDS011;49961;43.970;22.868;2023-02-15T06:31:41;26.40;;;21.00;;
63807;SDS011;49961;43.970;22.868;2023-02-15T06:32:42;26.80;;;22.07;;
63807;SDS011;49961;43.970;22.868;2023-02-15T06:33:42;26.17;;;21.47;;
63807;SDS011;49961;43.970;22.868;2023-02-15T06:34:43;26.63;;;21.53;;
63807;SDS011;49961;43.970;22.868;2023-02-15T06:35:44;27.70;;;22.23;;